Ash Township, Michigan
Current Conditions -  °F | °C
As of 10:52 PM on Tuesday 25 Nov 2014 (Local Time) from KTTF Reporting Station
Overcast Overcast  
Wind Chill: -2°   Ceiling: 2300
Heat Index: -2°   Visibility: 10mi
Dew Point: -6°   Wind: 0mph
Humidity: 74%   Direction: NA
Pressure: 30.21"   Gusts: NA
Location:  42.051°N, 83.409°W
Report Text: KTTF 260352Z AUTO 00000KT 10SM OVC023 M02/M06 A3021 RMK AO2
Loading
Personal Weather Stations






























Interactive Weather Map New forecast layout! Learn more

10-Day Weather Forecast

Advertisements
Track Severe Weather on mobile